OHCAM ENTC-ENTC

Flight info

Callsign OHCAM
Flight time 0h 11m
Altitude 2000
Route ENTC AREA SIGHTSEEING
Aircraft C172/L-V/N

Departure

Time 2026-05-05 18:33
Airport Tromsø Airport (ENTC)

Arrival

Time 2026-05-05 18:44
Airport Tromsø Airport (ENTC)
Time Latitude Longitude Altitude Speed Heading
2026-05-05 18:16 69.68649 18.91428 23 ft 0 kts 262°
2026-05-05 18:21 69.68644 18.91405 23 ft 3 kts 200°
2026-05-05 18:22 69.68633 18.91416 23 ft 0 kts 138°
2026-05-05 18:22 69.68622 18.91455 23 ft 9 kts 122°
2026-05-05 18:22 69.68555 18.91533 24 ft 17 kts 179°
2026-05-05 18:22 69.68393 18.91503 25 ft 19 kts 181°
2026-05-05 18:23 69.68284 18.91465 26 ft 1 kts 197°
2026-05-05 18:23 69.68223 18.91471 26 ft 17 kts 150°
2026-05-05 18:23 69.68226 18.91422 26 ft 0 kts 192°
2026-05-05 18:24 69.68185 18.91398 27 ft 15 kts 185°
2026-05-05 18:25 69.68121 18.91361 27 ft 14 kts 189°
2026-05-05 18:25 69.68032 18.91305 28 ft 25 kts 192°
2026-05-05 18:25 69.67831 18.91167 30 ft 0 kts 191°
2026-05-05 18:25 69.67827 18.91165 30 ft 5 kts 188°
2026-05-05 18:26 69.67733 18.91103 30 ft 23 kts 189°
2026-05-05 18:26 69.67657 18.91054 31 ft 8 kts 160°
2026-05-05 18:26 69.67642 18.91087 31 ft 0 kts 124°
2026-05-05 18:30 69.67629 18.91199 31 ft 14 kts 103°
2026-05-05 18:30 69.67631 18.91415 31 ft 0 kts 24°
2026-05-05 18:31 69.67634 18.91419 31 ft 3 kts 16°
2026-05-05 18:31 69.67653 18.91427 31 ft 0 kts 14°
2026-05-05 18:32 69.67772 18.91525 30 ft 38 kts 13°
2026-05-05 18:32 69.68143 18.91742 54 ft 65 kts 11°
2026-05-05 18:32 69.68595 18.91907 170 ft 68 kts 12°
2026-05-05 18:32 69.69105 18.91980 344 ft 62 kts
2026-05-05 18:33 69.69577 18.91748 464 ft 66 kts 348°
2026-05-05 18:33 69.69993 18.90940 547 ft 80 kts 311°
2026-05-05 18:33 69.70184 18.89591 692 ft 80 kts 282°
2026-05-05 18:33 69.70182 18.88100 841 ft 77 kts 261°
2026-05-05 18:34 69.70001 18.86651 988 ft 79 kts 242°
2026-05-05 18:34 69.69715 18.85275 1172 ft 79 kts 233°
2026-05-05 18:34 69.69355 18.84002 1307 ft 86 kts 225°
2026-05-05 18:34 69.68853 18.82850 1348 ft 97 kts 209°
2026-05-05 18:35 69.68283 18.82059 1607 ft 85 kts 196°
2026-05-05 18:35 69.67622 18.81716 1605 ft 103 kts 182°
2026-05-05 18:35 69.66917 18.81461 1796 ft 101 kts 187°
2026-05-05 18:35 69.66180 18.81037 1898 ft 105 kts 189°
2026-05-05 18:36 69.65445 18.80583 1962 ft 118 kts 190°
2026-05-05 18:36 69.64617 18.79996 1960 ft 122 kts 202°
2026-05-05 18:36 69.64274 18.78089 2159 ft 108 kts 271°
2026-05-05 18:36 69.64497 18.76047 2206 ft 112 kts 308°
2026-05-05 18:37 69.65038 18.74478 2216 ft 114 kts 328°
2026-05-05 18:37 69.65699 18.73298 2222 ft 118 kts 330°
2026-05-05 18:37 69.66376 18.71745 2110 ft 128 kts 322°
2026-05-05 18:37 69.67022 18.69920 2048 ft 132 kts 315°
2026-05-05 18:38 69.67601 18.68051 2215 ft 121 kts 320°
2026-05-05 18:38 69.68221 18.66586 2329 ft 114 kts 333°
2026-05-05 18:38 69.68756 18.65061 2261 ft 123 kts 295°
2026-05-05 18:38 69.69047 18.62518 2048 ft 142 kts 288°
2026-05-05 18:39 69.69305 18.59587 1449 ft 158 kts 287°
2026-05-05 18:39 69.69561 18.56610 1153 ft 151 kts 287°
2026-05-05 18:39 69.69800 18.53901 1451 ft 110 kts 289°
2026-05-05 18:39 69.69959 18.51565 1237 ft 136 kts 279°
2026-05-05 18:40 69.70013 18.48790 1091 ft 141 kts 275°
2026-05-05 18:40 69.70048 18.46102 1115 ft 134 kts 278°
2026-05-05 18:40 69.70119 18.43378 1014 ft 137 kts 277°
2026-05-05 18:40 69.70174 18.40686 990 ft 135 kts 275°
2026-05-05 18:41 69.70215 18.37944 851 ft 140 kts 275°
2026-05-05 18:41 69.70320 18.35172 808 ft 134 kts 281°
2026-05-05 18:41 69.70506 18.32668 963 ft 119 kts 298°
2026-05-05 18:41 69.71066 18.31178 1110 ft 105 kts 349°
2026-05-05 18:42 69.71560 18.31822 1496 ft 80 kts 97°
2026-05-05 18:42 69.71298 18.33692 1075 ft 119 kts 108°
2026-05-05 18:42 69.70930 18.36017 686 ft 137 kts 122°
2026-05-05 18:42 69.70365 18.38262 274 ft 137 kts 115°
2026-05-05 18:43 69.70130 18.40729 119 ft 120 kts 90°
2026-05-05 18:43 69.70342 18.41921 272 ft 71 kts 318°
2026-05-05 18:43 69.70153 18.41111 168 ft 57 kts 101°
2026-05-05 18:43 69.70134 18.42314 71 ft 61 kts 83°
2026-05-05 18:44 69.70159 18.43565 41 ft 63 kts 76°
2026-05-05 18:44 69.70241 18.44774 13 ft 59 kts 74°
2026-05-05 18:44 69.70274 18.45849 10 ft 50 kts 66°
2026-05-05 18:44 69.70363 18.46544 10 ft 23 kts 20°
2026-05-05 18:45 69.70527 18.46645 10 ft 23 kts 59°
2026-05-05 18:45 69.70583 18.47077 9 ft 19 kts 61°
2026-05-05 18:45 69.70625 18.47249 9 ft 5 kts 57°
2026-05-05 18:45 69.70650 18.47315 10 ft 5 kts 68°
2026-05-05 18:46 69.70670 18.47391 10 ft 4 kts 75°
2026-05-05 18:46 69.70689 18.47471 9 ft 5 kts 58°
2026-05-05 18:46 69.70708 18.47544 9 ft 5 kts 66°
2026-05-05 18:46 69.70726 18.47616 10 ft 4 kts 74°
2026-05-05 18:47 69.70745 18.47692 9 ft 4 kts 68°
2026-05-05 18:47 69.70767 18.47782 9 ft 8 kts 81°
2026-05-05 18:47 69.70795 18.47850 10 ft 0 kts 161°
2026-05-05 18:47 69.70792 18.47912 9 ft 4 kts 76°
2026-05-05 18:48 69.70804 18.47978 9 ft 0 kts 131°
2026-05-05 18:48 69.70803 18.48047 9 ft 5 kts 80°
2026-05-05 18:48 69.70806 18.48101 9 ft 4 kts 76°
2026-05-05 18:48 69.70818 18.48181 10 ft 0 kts 141°
2026-05-05 18:49 69.70768 18.48347 9 ft 4 kts 76°
2026-05-05 18:49 69.70779 18.48426 9 ft 4 kts 78°
2026-05-05 18:49 69.70803 18.48528 10 ft 0 kts 42°
2026-05-05 18:49 69.70795 18.48530 10 ft 0 kts 123°
2026-05-05 18:50 69.70710 18.48640 9 ft 2 kts 68°
2026-05-05 18:50 69.70723 18.48760 9 ft 7 kts 88°
2026-05-05 18:50 69.70746 18.48889 9 ft 1 kts 125°
2026-05-05 18:50 69.70738 18.48936 9 ft 7 kts 93°
2026-05-05 18:51 69.70742 18.49085 9 ft 7 kts 97°
2026-05-05 18:51 69.70745 18.49231 9 ft 8 kts 88°
2026-05-05 18:51 69.70769 18.49386 10 ft 0 kts
2026-05-05 18:51 69.70604 18.49432 9 ft 10 kts 23°
2026-05-05 18:52 69.70757 18.49728 10 ft 38 kts 54°
2026-05-05 18:52 69.70666 18.50496 44 ft 47 kts 108°
2026-05-05 18:52 69.70483 18.51415 50 ft 60 kts 109°
2026-05-05 18:52 69.70245 18.52596 107 ft 75 kts 112°
2026-05-05 18:53 69.69984 18.53985 248 ft 78 kts 109°
2026-05-05 18:53 69.69769 18.55406 390 ft 77 kts 102°
2026-05-05 18:53 69.69581 18.56898 513 ft 81 kts 108°
2026-05-05 18:53 69.69330 18.58342 685 ft 83 kts 113°
2026-05-05 18:54 69.69055 18.59782 917 ft 76 kts 109°
2026-05-05 18:54 69.68911 18.61253 1041 ft 83 kts 96°
2026-05-05 18:54 69.68842 18.63029 1054 ft 94 kts 93°
2026-05-05 18:54 69.68710 18.65027 1085 ft 107 kts 102°
2026-05-05 18:55 69.68509 18.67110 1163 ft 109 kts 104°
2026-05-05 18:55 69.68292 18.69280 1162 ft 119 kts 103°
2026-05-05 18:55 69.68018 18.71541 1242 ft 118 kts 107°
2026-05-05 18:55 69.67707 18.73735 1229 ft 122 kts 108°
2026-05-05 18:56 69.67432 18.76067 1172 ft 123 kts 105°
2026-05-05 18:56 69.67186 18.78492 997 ft 129 kts 104°
2026-05-05 18:56 69.66909 18.80892 952 ft 126 kts 107°
2026-05-05 18:56 69.66612 18.83263 892 ft 124 kts 108°
2026-05-05 18:57 69.66335 18.85571 805 ft 126 kts 104°
2026-05-05 18:57 69.66256 18.88137 458 ft 128 kts 84°
2026-05-05 18:57 69.66604 18.90267 268 ft 103 kts 44°
2026-05-05 18:57 69.67162 18.91083 70 ft 80 kts 18°
2026-05-05 18:58 69.67638 18.91405 38 ft 61 kts 24°
2026-05-05 18:58 69.68004 18.91679 29 ft 44 kts
2026-05-05 18:58 69.68080 18.91415 28 ft 5 kts 276°
2026-05-05 18:58 69.68147 18.91375 27 ft 18 kts 14°
2026-05-05 18:59 69.68304 18.91486 26 ft 28 kts
2026-05-05 18:59 69.68497 18.91532 24 ft 15 kts 352°
2026-05-05 18:59 69.68528 18.91362 24 ft 5 kts 281°
2026-05-05 18:59 69.68528 18.91359 24 ft 0 kts 280°